createdAt,value
2018-11-27T00:02:25.913Z,13.60
2018-11-27T00:04:53.952Z,14.00
2018-11-27T00:07:21.992Z,13.03
2018-11-27T00:09:50.038Z,13.20
2018-11-27T00:12:18.074Z,14.10
2018-11-27T00:14:46.103Z,13.68
2018-11-27T00:17:14.142Z,13.35
2018-11-27T00:19:42.186Z,14.68
2018-11-27T00:22:10.226Z,13.08
2018-11-27T00:24:38.246Z,13.60
2018-11-27T00:27:06.314Z,14.25
2018-11-27T00:29:34.351Z,14.58
2018-11-27T00:32:02.411Z,13.25
2018-11-27T00:34:30.451Z,14.10
2018-11-27T00:36:58.534Z,13.98
2018-11-27T00:39:26.550Z,13.38
2018-11-27T00:41:54.575Z,13.18
2018-11-27T00:44:22.607Z,13.43
2018-11-27T00:46:50.636Z,13.23
2018-11-27T00:49:18.687Z,12.73
2018-11-27T00:51:46.706Z,13.62
2018-11-27T00:54:14.742Z,12.90
2018-11-27T00:56:42.770Z,13.30
2018-11-27T00:59:10.792Z,13.28
2018-11-27T01:01:39.161Z,12.93
2018-11-27T01:04:07.214Z,12.63
2018-11-27T01:06:35.234Z,13.65
2018-11-27T01:09:03.806Z,12.82
2018-11-27T01:11:31.849Z,12.63
2018-11-27T01:13:59.886Z,12.50
2018-11-27T01:16:27.922Z,11.55
2018-11-27T01:18:55.943Z,11.80
2018-11-27T01:21:23.963Z,12.70
2018-11-27T01:23:51.985Z,13.38
2018-11-27T01:26:20.019Z,12.60
2018-11-27T01:28:48.075Z,13.40
2018-11-27T01:31:16.123Z,12.47
2018-11-27T01:33:44.162Z,13.50
2018-11-27T01:36:12.190Z,13.70
2018-11-27T01:38:40.238Z,13.80
2018-11-27T01:41:08.292Z,13.50
2018-11-27T01:43:36.363Z,13.62
2018-11-27T01:46:04.786Z,14.43
2018-11-27T01:48:32.835Z,14.05
2018-11-27T01:51:00.875Z,15.80
2018-11-27T01:53:28.898Z,14.28
2018-11-27T01:55:56.947Z,15.20
2018-11-27T01:58:24.987Z,15.63
2018-11-27T02:00:53.019Z,17.50
2018-11-27T02:03:21.063Z,18.83
2018-11-27T02:05:49.111Z,19.82
2018-11-27T02:08:17.158Z,21.20
2018-11-27T02:10:45.201Z,22.13
2018-11-27T02:13:13.247Z,20.55
2018-11-27T02:15:41.280Z,21.20
2018-11-27T02:18:09.346Z,23.80
2018-11-27T02:20:37.370Z,21.90
2018-11-27T02:23:05.784Z,23.62
2018-11-27T02:25:34.843Z,21.12
2018-11-27T02:28:02.878Z,21.82
2018-11-27T02:30:30.931Z,22.98
2018-11-27T02:32:58.962Z,22.45
2018-11-27T02:35:27.124Z,22.55
2018-11-27T02:37:57.411Z,21.70
2018-11-27T02:40:25.456Z,22.30
2018-11-27T02:42:53.495Z,20.43
2018-11-27T02:45:22.552Z,21.77
2018-11-27T02:47:51.486Z,21.40
2018-11-27T02:50:20.563Z,21.50
2018-11-27T02:52:48.617Z,20.80
2018-11-27T02:55:17.727Z,19.50
2018-11-27T02:57:45.782Z,20.70
2018-11-27T03:00:14.808Z,19.87
2018-11-27T03:02:42.881Z,22.55
2018-11-27T03:05:13.198Z,19.37
2018-11-27T03:07:41.255Z,20.72
2018-11-27T03:10:11.672Z,19.07
2018-11-27T03:12:39.719Z,18.70
2018-11-27T03:15:10.727Z,21.53
2018-11-27T03:17:38.843Z,20.12
2018-11-27T03:20:08.588Z,18.90
2018-11-27T03:22:36.639Z,17.92
2018-11-27T03:25:06.478Z,18.53
2018-11-27T03:27:34.533Z,18.52
2018-11-27T03:30:02.583Z,17.60
2018-11-27T03:32:30.642Z,18.55
2018-11-27T03:34:58.664Z,17.40
2018-11-27T03:37:26.727Z,17.87
2018-11-27T03:39:54.742Z,16.70
2018-11-27T03:42:22.754Z,18.12
2018-11-27T03:44:50.787Z,17.30
2018-11-27T03:47:18.803Z,18.55
2018-11-27T03:49:46.839Z,17.45
2018-11-27T03:52:14.879Z,17.90
2018-11-27T03:54:42.900Z,17.05
2018-11-27T03:57:10.939Z,16.50
2018-11-27T03:59:39.046Z,16.12
2018-11-27T04:02:07.083Z,17.30
2018-11-27T04:04:35.124Z,17.75
2018-11-27T04:07:03.295Z,15.10
2018-11-27T04:09:31.310Z,15.30
2018-11-27T04:11:59.347Z,15.45
2018-11-27T04:14:27.380Z,17.02
2018-11-27T04:16:55.420Z,17.23
2018-11-27T04:19:23.434Z,16.20
2018-11-27T04:21:51.475Z,16.70
2018-11-27T04:24:19.553Z,16.87
2018-11-27T04:26:47.596Z,14.95
2018-11-27T04:29:15.695Z,15.05
2018-11-27T04:31:43.748Z,14.70
2018-11-27T04:34:11.775Z,14.83
2018-11-27T04:36:39.827Z,14.55
2018-11-27T04:39:08.829Z,14.95
2018-11-27T04:41:36.918Z,14.75
2018-11-27T04:44:05.243Z,15.80
2018-11-27T04:46:33.279Z,15.30
2018-11-27T04:49:01.319Z,17.77
2018-11-27T04:51:29.357Z,15.85
2018-11-27T04:53:57.980Z,15.23
2018-11-27T04:56:26.069Z,14.85
2018-11-27T04:58:54.108Z,16.73
2018-11-27T05:01:22.164Z,17.30
2018-11-27T05:03:50.178Z,14.10
2018-11-27T05:06:18.239Z,17.15
2018-11-27T05:08:46.270Z,16.80
2018-11-27T05:11:14.307Z,16.20
2018-11-27T05:13:42.358Z,15.93
2018-11-27T05:16:10.397Z,15.88
2018-11-27T05:18:38.444Z,15.95
2018-11-27T05:21:06.626Z,15.40
2018-11-27T05:23:34.664Z,15.48
2018-11-27T05:26:02.730Z,16.80
2018-11-27T05:28:30.802Z,15.53
2018-11-27T05:30:58.850Z,14.58
2018-11-27T05:33:26.878Z,14.78
2018-11-27T05:35:54.919Z,15.08
2018-11-27T05:38:22.959Z,25.62
2018-11-27T05:40:51.319Z,19.02
2018-11-27T05:43:19.363Z,15.55
2018-11-27T05:45:47.387Z,18.02
2018-11-27T05:48:15.427Z,16.35
2018-11-27T05:50:43.473Z,16.55
2018-11-27T05:53:11.514Z,14.93
2018-11-27T05:55:39.613Z,15.30
2018-11-27T05:58:07.619Z,16.73
2018-11-27T06:00:35.656Z,15.98
2018-11-27T06:03:03.674Z,15.20
2018-11-27T06:05:31.718Z,16.35
2018-11-27T06:07:59.754Z,16.77
2018-11-27T06:10:27.786Z,16.55
2018-11-27T06:12:55.846Z,16.17
2018-11-27T06:15:24.534Z,17.48
2018-11-27T06:17:57.902Z,16.12
2018-11-27T06:20:25.950Z,16.67
2018-11-27T06:22:54.514Z,21.00
2018-11-27T06:25:23.612Z,19.60
2018-11-27T06:27:53.106Z,17.40
2018-11-27T06:30:22.334Z,16.90
2018-11-27T06:32:50.362Z,17.17
2018-11-27T06:35:19.798Z,17.10
2018-11-27T06:37:47.869Z,19.45
2018-11-27T06:40:20.026Z,18.70
2018-11-27T06:42:48.054Z,15.90
2018-11-27T06:45:17.220Z,16.65
2018-11-27T06:47:46.071Z,16.37
2018-11-27T06:50:15.323Z,17.73
2018-11-27T06:52:43.347Z,17.60
2018-11-27T06:55:12.547Z,19.00
2018-11-27T06:57:40.607Z,18.25
2018-11-27T07:00:19.471Z,16.90
2018-11-27T07:02:47.516Z,17.02
2018-11-27T07:05:23.015Z,19.23
2018-11-27T07:07:51.051Z,17.57
2018-11-27T07:10:21.251Z,20.30
2018-11-27T07:12:50.362Z,18.30
2018-11-27T07:15:20.686Z,19.90
2018-11-27T07:17:48.704Z,18.10
2018-11-27T07:20:16.767Z,18.40
2018-11-27T07:22:44.798Z,21.10
2018-11-27T07:25:13.898Z,17.02
2018-11-27T07:27:44.384Z,17.10
2018-11-27T07:30:13.908Z,18.55
2018-11-27T07:32:41.938Z,19.10
2018-11-27T07:35:11.250Z,18.32
2018-11-27T07:37:39.351Z,18.85
2018-11-27T07:40:15.532Z,18.05
2018-11-27T07:42:43.621Z,20.10
2018-11-27T07:45:14.505Z,20.68
2018-11-27T07:47:42.592Z,18.93
2018-11-27T07:50:11.374Z,17.57
2018-11-27T07:52:39.450Z,18.25
2018-11-27T07:55:09.241Z,18.52
2018-11-27T07:57:37.418Z,20.43
2018-11-27T08:00:09.173Z,18.30
2018-11-27T08:02:37.223Z,20.45
2018-11-27T08:05:07.581Z,18.23
2018-11-27T08:07:35.618Z,19.05
2018-11-27T08:10:04.107Z,29.45
2018-11-27T08:12:32.182Z,17.42
2018-11-27T08:15:00.227Z,16.90
2018-11-27T08:17:28.247Z,17.12
2018-11-27T08:19:56.274Z,16.77
2018-11-27T08:22:24.300Z,18.10
2018-11-27T08:24:52.378Z,17.35
2018-11-27T08:27:20.436Z,17.50
2018-11-27T08:29:48.508Z,16.10
2018-11-27T08:32:16.539Z,17.42
2018-11-27T08:34:44.899Z,17.00
2018-11-27T08:37:12.975Z,16.60
2018-11-27T08:39:41.011Z,16.37
2018-11-27T08:42:09.072Z,22.80
2018-11-27T08:44:37.107Z,16.93
2018-11-27T08:47:05.627Z,16.50
2018-11-27T08:49:33.687Z,17.57
2018-11-27T08:52:01.723Z,18.37
2018-11-27T08:54:29.793Z,18.95
2018-11-27T08:56:57.838Z,15.80
2018-11-27T08:59:25.870Z,15.55
2018-11-27T09:01:53.982Z,16.37
2018-11-27T09:04:22.026Z,17.73
2018-11-27T09:06:50.082Z,17.92
2018-11-27T09:09:18.152Z,15.70
2018-11-27T09:11:46.174Z,15.15
2018-11-27T09:14:14.227Z,15.13
2018-11-27T09:16:42.314Z,15.23
2018-11-27T09:19:10.366Z,15.10
2018-11-27T09:21:38.468Z,15.28
2018-11-27T09:24:06.504Z,16.60
2018-11-27T09:26:34.526Z,18.07
2018-11-27T09:29:02.578Z,16.52
2018-11-27T09:31:30.599Z,15.50
2018-11-27T09:33:58.642Z,14.90
2018-11-27T09:36:26.676Z,14.93
2018-11-27T09:38:54.748Z,14.40
2018-11-27T09:41:22.775Z,15.47
2018-11-27T09:43:50.818Z,15.05
2018-11-27T09:46:18.837Z,13.87
2018-11-27T09:48:46.891Z,14.60
2018-11-27T09:51:14.917Z,14.00
2018-11-27T09:53:42.979Z,13.93
2018-11-27T09:56:11.033Z,14.17
2018-11-27T09:58:39.094Z,13.50
2018-11-27T10:01:07.218Z,13.95
2018-11-27T10:03:35.263Z,12.65
2018-11-27T10:06:03.278Z,13.32
2018-11-27T10:08:31.315Z,12.60
2018-11-27T10:10:59.346Z,13.00
2018-11-27T10:13:27.399Z,13.55
2018-11-27T10:15:55.423Z,13.10
2018-11-27T10:18:23.463Z,13.38
2018-11-27T10:20:51.498Z,12.70
2018-11-27T10:23:19.551Z,12.45
2018-11-27T10:25:47.568Z,11.50
2018-11-27T10:28:15.642Z,11.20
2018-11-27T10:30:43.653Z,12.88
2018-11-27T10:33:12.246Z,14.15
2018-11-27T10:35:46.055Z,11.75
2018-11-27T10:38:14.082Z,13.13
2018-11-27T10:40:42.125Z,15.13
2018-11-27T10:43:10.170Z,11.93
2018-11-27T10:45:38.198Z,12.23
2018-11-27T10:48:06.212Z,11.05
2018-11-27T10:50:34.263Z,11.10
2018-11-27T10:53:02.299Z,11.95
2018-11-27T10:55:30.332Z,11.65
2018-11-27T10:57:58.352Z,10.88
2018-11-27T11:00:32.414Z,11.40
2018-11-27T11:04:04.354Z,10.70
2018-11-27T11:06:32.905Z,11.10
2018-11-27T11:09:01.612Z,10.80
2018-11-27T11:11:29.654Z,10.13
2018-11-27T11:13:57.699Z,9.83
2018-11-27T11:16:25.785Z,10.55
2018-11-27T11:18:53.832Z,10.30
2018-11-27T11:21:21.847Z,9.18
2018-11-27T11:23:49.886Z,13.75
2018-11-27T11:26:17.919Z,11.80
2018-11-27T11:28:45.958Z,10.32
2018-11-27T11:31:14.039Z,11.12
2018-11-27T11:36:16.587Z,9.73
2018-11-27T11:38:44.685Z,9.93
2018-11-27T11:41:12.727Z,10.05
2018-11-27T11:43:40.760Z,10.10
2018-11-27T11:46:08.789Z,9.73
2018-11-27T11:48:36.827Z,9.88
2018-11-27T11:51:05.359Z,10.40
2018-11-27T11:53:33.391Z,9.83
2018-11-27T11:56:01.479Z,10.30
2018-11-27T11:58:29.617Z,10.20
2018-11-27T12:00:57.928Z,9.30
2018-11-27T12:03:26.007Z,9.58
2018-11-27T12:05:54.028Z,9.50
2018-11-27T12:08:22.080Z,10.88
2018-11-27T12:10:50.126Z,10.83
2018-11-27T12:13:18.166Z,11.20
2018-11-27T12:15:46.217Z,10.27
2018-11-27T12:18:14.299Z,9.20
2018-11-27T12:20:42.321Z,10.30
2018-11-27T12:23:11.315Z,10.48
2018-11-27T12:25:40.103Z,11.63
2018-11-27T12:28:14.353Z,11.38
2018-11-27T12:30:37.271Z,10.40
2018-11-27T12:33:05.847Z,10.13
2018-11-27T12:35:34.058Z,8.88
2018-11-27T12:38:02.134Z,10.55
2018-11-27T12:40:30.158Z,9.60
2018-11-27T12:42:58.419Z,10.40
2018-11-27T12:45:29.248Z,11.22
2018-11-27T12:47:58.250Z,9.75
2018-11-27T12:50:30.323Z,8.70
2018-11-27T12:52:58.339Z,8.80
2018-11-27T12:55:26.367Z,10.58
2018-11-27T12:57:54.401Z,9.40
2018-11-27T13:00:23.669Z,11.08
2018-11-27T13:02:51.745Z,8.75
2018-11-27T13:05:22.140Z,8.85
2018-11-27T13:07:51.133Z,9.15
2018-11-27T13:10:19.174Z,8.80
2018-11-27T13:12:47.218Z,9.85
2018-11-27T13:15:18.418Z,7.95
2018-11-27T13:17:47.290Z,7.50
2018-11-27T13:20:16.286Z,5.92
2018-11-27T13:22:44.334Z,6.70
2018-11-27T13:25:16.520Z,6.50
2018-11-27T13:27:44.560Z,9.63
2018-11-27T13:30:15.028Z,8.58
2018-11-27T13:32:43.694Z,7.28
2018-11-27T13:35:12.618Z,8.85
2018-11-27T13:37:40.866Z,8.70
2018-11-27T13:40:10.260Z,6.17
2018-11-27T13:42:38.338Z,4.00
2018-11-27T13:45:12.169Z,4.70
2018-11-27T13:47:40.836Z,3.35
2018-11-27T13:50:12.895Z,5.17
2018-11-27T13:52:40.978Z,6.17
2018-11-27T13:55:20.108Z,5.45
2018-11-27T13:57:48.171Z,4.80
2018-11-27T14:00:17.965Z,4.35
2018-11-27T14:02:49.636Z,3.90
2018-11-27T14:05:19.660Z,4.47
2018-11-27T14:07:47.762Z,7.77
2018-11-27T14:10:15.879Z,5.97
2018-11-27T14:12:43.920Z,3.50
2018-11-27T14:15:14.025Z,3.00
2018-11-27T14:17:42.065Z,3.40
2018-11-27T14:20:10.072Z,4.10
2018-11-27T14:22:38.104Z,3.67
2018-11-27T14:25:07.619Z,6.30
2018-11-27T14:27:35.678Z,6.00
2018-11-27T14:30:07.522Z,5.65
2018-11-27T14:32:35.591Z,5.60
2018-11-27T14:35:03.628Z,6.50
2018-11-27T14:37:31.679Z,5.17
2018-11-27T14:39:59.711Z,6.70
2018-11-27T14:42:27.763Z,8.23
2018-11-27T14:44:55.792Z,7.23
2018-11-27T14:47:23.857Z,7.62
2018-11-27T14:49:51.894Z,5.60
2018-11-27T14:52:19.946Z,8.13
2018-11-27T14:54:47.980Z,8.10
2018-11-27T14:57:16.026Z,10.78
2018-11-27T14:59:44.059Z,11.87
2018-11-27T15:02:12.131Z,14.58
2018-11-27T15:04:40.170Z,14.00
2018-11-27T15:07:08.267Z,16.40
2018-11-27T15:09:36.311Z,16.60
2018-11-27T15:12:04.683Z,15.43
2018-11-27T15:14:32.739Z,14.85
2018-11-27T15:17:00.772Z,15.98
2018-11-27T15:19:29.532Z,14.47
2018-11-27T15:21:58.395Z,14.87
2018-11-27T15:24:28.615Z,14.80
2018-11-27T15:26:57.538Z,14.07
2018-11-27T15:29:26.701Z,15.32
2018-11-27T15:31:55.677Z,12.88
2018-11-27T15:34:24.794Z,15.65
2018-11-27T15:36:54.385Z,15.95
2018-11-27T15:39:23.378Z,13.50
2018-11-27T15:41:53.467Z,13.60
2018-11-27T15:44:22.314Z,12.68
2018-11-27T15:46:52.034Z,14.28
2018-11-27T15:49:22.638Z,13.75
2018-11-27T15:51:52.522Z,18.10
2018-11-27T15:54:21.530Z,20.48
2018-11-27T15:56:50.420Z,13.30
2018-11-27T15:59:20.848Z,12.82
2018-11-27T16:01:50.179Z,11.53
2018-11-27T16:04:19.066Z,14.93
2018-11-27T16:06:49.014Z,13.23
2018-11-27T16:09:17.947Z,15.08
2018-11-27T16:11:48.006Z,15.05
2018-11-27T16:14:17.758Z,13.78
2018-11-27T16:16:47.049Z,15.08
2018-11-27T16:19:16.062Z,13.25
2018-11-27T16:21:45.067Z,14.85
2018-11-27T16:24:13.960Z,14.20
2018-11-27T16:26:42.733Z,13.17
2018-11-27T16:29:11.851Z,13.80
2018-11-27T16:31:40.630Z,13.43
2018-11-27T16:34:09.547Z,13.70
2018-11-27T16:36:38.529Z,13.20
2018-11-27T16:39:11.278Z,12.63
2018-11-27T16:41:39.477Z,12.30
2018-11-27T16:44:07.511Z,14.07
2018-11-27T16:46:35.558Z,10.90
2018-11-27T16:49:03.604Z,10.58
2018-11-27T16:51:31.628Z,10.43
2018-11-27T16:53:59.686Z,10.13
2018-11-27T16:56:27.715Z,9.93
2018-11-27T16:58:55.772Z,11.95
2018-11-27T17:01:23.783Z,10.10
2018-11-27T17:03:51.822Z,8.60
2018-11-27T17:06:19.882Z,10.60
2018-11-27T17:08:47.908Z,14.15
2018-11-27T17:11:15.997Z,10.75
2018-11-27T17:13:44.023Z,11.55
2018-11-27T17:16:12.063Z,14.55
2018-11-27T17:18:40.172Z,12.93
2018-11-27T17:21:08.218Z,13.93
2018-11-27T17:23:36.273Z,40.73
2018-11-27T17:26:04.293Z,13.93
2018-11-27T17:28:32.796Z,15.30
2018-11-27T17:31:07.684Z,13.18
2018-11-27T17:33:42.923Z,13.10
2018-11-27T17:36:10.995Z,15.15
2018-11-27T17:38:39.026Z,13.45
2018-11-27T17:41:07.867Z,13.35
2018-11-27T17:43:35.894Z,14.05
2018-11-27T17:46:04.106Z,12.90
2018-11-27T17:48:32.175Z,13.62
2018-11-27T17:51:00.219Z,16.93
2018-11-27T17:53:28.325Z,12.90
2018-11-27T17:55:56.358Z,13.00
2018-11-27T17:58:24.383Z,14.40
2018-11-27T18:00:52.468Z,13.38
2018-11-27T18:03:20.499Z,13.72
2018-11-27T18:05:48.576Z,13.65
2018-11-27T18:08:16.612Z,16.90
2018-11-27T18:10:44.662Z,16.30
2018-11-27T18:13:14.858Z,16.12
2018-11-27T18:15:41.602Z,16.10
2018-11-27T18:18:09.654Z,16.50
2018-11-27T18:20:37.695Z,14.60
2018-11-27T18:23:06.019Z,16.42
2018-11-27T18:25:35.137Z,17.02
2018-11-27T18:28:03.164Z,19.00
2018-11-27T18:30:31.215Z,18.65
2018-11-27T18:32:59.241Z,19.40
2018-11-27T18:35:27.299Z,17.85
2018-11-27T18:37:55.331Z,17.87
2018-11-27T18:40:23.369Z,17.52
2018-11-27T18:42:52.398Z,18.92
2018-11-27T18:45:22.622Z,18.27
2018-11-27T18:47:50.655Z,17.30
2018-11-27T18:50:18.851Z,18.50
2018-11-27T18:52:46.890Z,22.20
2018-11-27T18:55:15.591Z,22.40
2018-11-27T18:57:44.595Z,24.32
2018-11-27T19:00:15.745Z,24.85
2018-11-27T19:02:43.786Z,26.15
2018-11-27T19:05:11.803Z,25.48
2018-11-27T19:07:39.853Z,25.48
2018-11-27T19:10:11.646Z,26.12
2018-11-27T19:12:39.707Z,24.98
2018-11-27T19:15:11.828Z,26.15
2018-11-27T19:17:39.926Z,26.37
2018-11-27T19:20:10.664Z,23.15
2018-11-27T19:22:38.704Z,22.55
2018-11-27T19:25:10.587Z,21.52
2018-11-27T19:27:38.769Z,20.57
2018-11-27T19:30:16.005Z,21.60
2018-11-27T19:32:40.014Z,18.32
2018-11-27T19:35:10.467Z,20.60
2018-11-27T19:37:38.525Z,20.37
2018-11-27T19:40:11.412Z,20.12
2018-11-27T19:42:39.455Z,19.20
2018-11-27T19:45:09.886Z,21.15
2018-11-27T19:47:38.650Z,18.62
2018-11-27T19:50:10.070Z,19.27
2018-11-27T19:52:39.170Z,20.57
2018-11-27T19:55:09.149Z,20.52
2018-11-27T19:57:37.207Z,33.60
2018-11-27T20:00:13.483Z,20.27
2018-11-27T20:02:41.531Z,19.23
2018-11-27T20:05:10.747Z,18.10
2018-11-27T20:07:38.770Z,20.92
2018-11-27T20:10:08.754Z,18.83
2018-11-27T20:12:36.774Z,20.43
2018-11-27T20:15:07.335Z,19.02
2018-11-27T20:17:35.371Z,19.73
2018-11-27T20:20:03.439Z,18.00
2018-11-27T20:22:31.516Z,18.57
2018-11-27T20:24:59.580Z,19.48
2018-11-27T20:27:27.616Z,17.70
2018-11-27T20:29:55.670Z,18.55
2018-11-27T20:32:23.728Z,19.60
2018-11-27T20:34:51.783Z,19.12
2018-11-27T20:37:19.820Z,17.20
2018-11-27T20:39:47.888Z,17.70
2018-11-27T20:42:15.946Z,19.17
2018-11-27T20:44:43.974Z,18.23
2018-11-27T20:47:12.033Z,17.93
2018-11-27T20:49:40.096Z,17.87
2018-11-27T20:52:08.150Z,17.70
2018-11-27T20:54:36.197Z,17.03
2018-11-27T20:57:04.235Z,17.00
2018-11-27T20:59:32.333Z,15.48
2018-11-27T21:02:00.354Z,15.80
2018-11-27T21:04:28.419Z,14.35
2018-11-27T21:06:56.451Z,15.32
2018-11-27T21:09:24.488Z,16.07
2018-11-27T21:11:52.544Z,13.10
2018-11-27T21:14:20.586Z,14.43
2018-11-27T21:16:48.643Z,13.83
2018-11-27T21:19:16.673Z,14.87
2018-11-27T21:21:44.734Z,13.90
2018-11-27T21:24:12.782Z,13.30
2018-11-27T21:26:40.815Z,13.10
2018-11-27T21:29:08.837Z,13.13
2018-11-27T21:31:37.994Z,13.10
2018-11-27T21:34:04.936Z,13.08
2018-11-27T21:36:32.971Z,13.32
2018-11-27T21:39:01.014Z,12.15
2018-11-27T21:41:29.067Z,12.20
2018-11-27T21:43:57.127Z,12.53
2018-11-27T21:46:25.198Z,12.23
2018-11-27T21:48:53.233Z,12.13
2018-11-27T21:51:21.329Z,11.50
2018-11-27T21:53:49.343Z,12.23
2018-11-27T21:56:17.394Z,12.07
2018-11-27T21:58:45.435Z,11.50
2018-11-27T22:01:13.478Z,11.50
2018-11-27T22:03:41.532Z,11.78
2018-11-27T22:06:09.575Z,11.60
2018-11-27T22:08:40.669Z,12.70
2018-11-27T22:11:08.733Z,13.13
2018-11-27T22:13:36.762Z,12.50
2018-11-27T22:16:05.160Z,11.65
2018-11-27T22:18:33.213Z,11.90
2018-11-27T22:21:01.260Z,11.60
2018-11-27T22:23:29.287Z,11.50
2018-11-27T22:25:57.334Z,12.75
2018-11-27T22:28:25.410Z,13.05
2018-11-27T22:30:53.450Z,12.10
2018-11-27T22:33:21.491Z,13.20
2018-11-27T22:35:49.530Z,13.65
2018-11-27T22:38:17.585Z,14.10
2018-11-27T22:40:45.635Z,13.28
2018-11-27T22:43:13.689Z,13.72
2018-11-27T22:45:41.746Z,14.33
2018-11-27T22:48:11.006Z,13.68
2018-11-27T22:50:39.083Z,12.03
2018-11-27T22:53:08.061Z,15.17
2018-11-27T22:55:36.111Z,13.05
2018-11-27T22:58:04.827Z,15.03
2018-11-27T23:00:38.399Z,13.90
2018-11-27T23:03:06.442Z,13.28
2018-11-27T23:05:34.466Z,13.55
2018-11-27T23:08:02.506Z,14.23
2018-11-27T23:10:33.246Z,15.08
2018-11-27T23:13:01.275Z,14.68
2018-11-27T23:15:29.313Z,15.43
2018-11-27T23:17:57.351Z,14.70
2018-11-27T23:20:25.430Z,14.85
2018-11-27T23:22:53.450Z,20.48
2018-11-27T23:25:21.490Z,15.70
2018-11-27T23:27:49.663Z,18.05
2018-11-27T23:30:19.026Z,16.20
2018-11-27T23:32:47.087Z,16.50
2018-11-27T23:35:15.148Z,16.90
2018-11-27T23:37:43.184Z,17.05
2018-11-27T23:40:12.178Z,16.83
2018-11-27T23:42:40.507Z,17.05
2018-11-27T23:45:13.522Z,17.30
2018-11-27T23:47:41.555Z,17.83
2018-11-27T23:50:10.689Z,17.17
2018-11-27T23:52:38.722Z,18.02
2018-11-27T23:55:08.957Z,18.50
2018-11-27T23:57:37.187Z,17.40
